Flight Briefing for CPX779

Departure Arrival
Chinggis Khaan International Airport (ZMUB)
Click to view FAA NOTAMS
Incheon International Airport (RKSI)
Click to view FAA NOTAMS
Departure Time Arrival Time
N/A N/A
Aircraft Distance
B767-300BDSF 1066nm
Departure METAR Arrival METAR
ZMUB 192330Z VRB01MPS 8000NW NSC M25/M30 Q1019 NOSIG RMK QFE657.1 60 NT RKSI 192330Z 28006KT 260V340 6000 BKN040 02/M02 Q1025 NOSIG
Suggested Route
SND A575 PIDOX V1 PAMDA A326 DONVO G597 GONAV GONAV2M


View recent IFR Routes data
Notes



Charts and Procedures

Charts for ZMUB
No chart available
Charts for RKSI
No chart available

Ventusky Weather




{"cat":null,"equip":null,"transponder":null,"pbn":"PBN\/","maxpax":null,"oew":"0.0","mzfw":"0.0","mtow":"0.0","mlw":"0.0","maxfuel":"0.0"} DEVELOPMENTAL TEST USE ONLY